Angola, New York
Current Conditions -  °F | °C
As of 5:53 PM on Wednesday 22 Oct 2014 (Local Time) from KDKK Reporting Station
Overcast Overcast  
Wind Chill: 42°   Ceiling: 1700
Heat Index: 47°   Visibility: 10mi
Dew Point: 41°   Wind: 12mph
Humidity: 80%   Direction: 10°N
Pressure: 30.22"   Gusts: NA
Location:  42.64°N, 79.03°W
Report Text: KDKK 222153Z AUTO 01010KT 10SM OVC017 08/05 A3022 RMK AO2 SLP237 T00830050
Loading
Personal Weather Stations






























Interactive Weather Map New forecast layout! Learn more

10-Day Weather Forecast

Advertisements
Track Severe Weather on mobile